sensor_id;sensor_type;location;lat;lon;timestamp;P1;durP1;ratioP1;P2;durP2;ratioP2
37205;SDS011;23099;42.636;23.198;2023-03-29T00:02:19;6.17;;;2.70;;
37205;SDS011;23099;42.636;23.198;2023-03-29T00:04:46;8.37;;;3.47;;
37205;SDS011;23099;42.636;23.198;2023-03-29T00:07:12;7.03;;;3.27;;
37205;SDS011;23099;42.636;23.198;2023-03-29T00:09:39;7.87;;;3.20;;
37205;SDS011;23099;42.636;23.198;2023-03-29T00:12:06;10.47;;;2.80;;
37205;SDS011;23099;42.636;23.198;2023-03-29T00:14:34;7.17;;;2.70;;
37205;SDS011;23099;42.636;23.198;2023-03-29T00:17:01;6.80;;;2.80;;
37205;SDS011;23099;42.636;23.198;2023-03-29T00:19:28;10.43;;;4.00;;
37205;SDS011;23099;42.636;23.198;2023-03-29T00:21:59;9.73;;;3.10;;
37205;SDS011;23099;42.636;23.198;2023-03-29T00:24:26;13.13;;;3.83;;
37205;SDS011;23099;42.636;23.198;2023-03-29T00:26:53;51.07;;;10.30;;
37205;SDS011;23099;42.636;23.198;2023-03-29T00:29:19;8.70;;;2.97;;
37205;SDS011;23099;42.636;23.198;2023-03-29T00:31:47;8.63;;;3.13;;
37205;SDS011;23099;42.636;23.198;2023-03-29T00:34:17;8.97;;;3.10;;
37205;SDS011;23099;42.636;23.198;2023-03-29T00:36:44;9.93;;;3.47;;
37205;SDS011;23099;42.636;23.198;2023-03-29T00:39:14;8.17;;;3.00;;
37205;SDS011;23099;42.636;23.198;2023-03-29T00:41:42;7.57;;;2.30;;
37205;SDS011;23099;42.636;23.198;2023-03-29T00:47:11;7.67;;;2.73;;
37205;SDS011;23099;42.636;23.198;2023-03-29T00:49:38;7.32;;;2.70;;
37205;SDS011;23099;42.636;23.198;2023-03-29T00:52:05;7.28;;;3.13;;
37205;SDS011;23099;42.636;23.198;2023-03-29T00:54:33;9.13;;;3.13;;
37205;SDS011;23099;42.636;23.198;2023-03-29T00:57:02;9.13;;;2.77;;
37205;SDS011;23099;42.636;23.198;2023-03-29T00:59:30;6.93;;;2.53;;
37205;SDS011;23099;42.636;23.198;2023-03-29T01:02:00;7.70;;;2.77;;
37205;SDS011;23099;42.636;23.198;2023-03-29T01:04:31;6.67;;;2.80;;
37205;SDS011;23099;42.636;23.198;2023-03-29T01:07:02;22.53;;;7.23;;
37205;SDS011;23099;42.636;23.198;2023-03-29T01:09:32;8.53;;;2.60;;
37205;SDS011;23099;42.636;23.198;2023-03-29T01:12:03;6.70;;;2.80;;
37205;SDS011;23099;42.636;23.198;2023-03-29T01:14:35;9.53;;;6.20;;
37205;SDS011;23099;42.636;23.198;2023-03-29T01:17:06;6.53;;;3.00;;
37205;SDS011;23099;42.636;23.198;2023-03-29T01:19:36;6.27;;;2.93;;
37205;SDS011;23099;42.636;23.198;2023-03-29T01:22:08;9.33;;;3.70;;
37205;SDS011;23099;42.636;23.198;2023-03-29T01:24:53;7.43;;;3.07;;
37205;SDS011;23099;42.636;23.198;2023-03-29T01:27:48;6.53;;;3.40;;
37205;SDS011;23099;42.636;23.198;2023-03-29T01:30:20;8.33;;;2.83;;
37205;SDS011;23099;42.636;23.198;2023-03-29T01:32:53;8.90;;;3.00;;
37205;SDS011;23099;42.636;23.198;2023-03-29T01:35:24;5.50;;;2.30;;
37205;SDS011;23099;42.636;23.198;2023-03-29T01:37:57;7.20;;;2.60;;
37205;SDS011;23099;42.636;23.198;2023-03-29T01:40:28;7.47;;;2.43;;
37205;SDS011;23099;42.636;23.198;2023-03-29T01:42:58;7.87;;;2.67;;
37205;SDS011;23099;42.636;23.198;2023-03-29T01:45:33;6.25;;;2.75;;
37205;SDS011;23099;42.636;23.198;2023-03-29T01:48:07;7.33;;;2.37;;
37205;SDS011;23099;42.636;23.198;2023-03-29T01:50:40;6.90;;;3.10;;
37205;SDS011;23099;42.636;23.198;2023-03-29T01:53:10;12.30;;;3.77;;
37205;SDS011;23099;42.636;23.198;2023-03-29T01:55:43;6.77;;;2.73;;
37205;SDS011;23099;42.636;23.198;2023-03-29T01:58:16;10.03;;;3.43;;
37205;SDS011;23099;42.636;23.198;2023-03-29T02:00:44;6.20;;;2.80;;
37205;SDS011;23099;42.636;23.198;2023-03-29T02:03:13;7.37;;;3.17;;
37205;SDS011;23099;42.636;23.198;2023-03-29T02:08:09;8.17;;;2.60;;
37205;SDS011;23099;42.636;23.198;2023-03-29T02:10:38;35.40;;;6.47;;
37205;SDS011;23099;42.636;23.198;2023-03-29T02:13:05;10.43;;;3.53;;
37205;SDS011;23099;42.636;23.198;2023-03-29T02:15:33;6.00;;;2.47;;
37205;SDS011;23099;42.636;23.198;2023-03-29T02:18:00;8.38;;;2.67;;
37205;SDS011;23099;42.636;23.198;2023-03-29T02:20:28;10.88;;;2.78;;
37205;SDS011;23099;42.636;23.198;2023-03-29T02:23:02;6.27;;;2.43;;
37205;SDS011;23099;42.636;23.198;2023-03-29T02:25:33;6.90;;;2.43;;
37205;SDS011;23099;42.636;23.198;2023-03-29T02:30:29;5.33;;;2.17;;
37205;SDS011;23099;42.636;23.198;2023-03-29T02:33:03;8.13;;;3.07;;
37205;SDS011;23099;42.636;23.198;2023-03-29T02:35:36;7.03;;;3.10;;
37205;SDS011;23099;42.636;23.198;2023-03-29T02:38:09;6.03;;;2.27;;
37205;SDS011;23099;42.636;23.198;2023-03-29T02:40:37;11.33;;;3.20;;
37205;SDS011;23099;42.636;23.198;2023-03-29T02:43:06;7.90;;;2.30;;
37205;SDS011;23099;42.636;23.198;2023-03-29T02:48:04;13.68;;;7.15;;
37205;SDS011;23099;42.636;23.198;2023-03-29T02:50:35;8.70;;;3.00;;
37205;SDS011;23099;42.636;23.198;2023-03-29T02:53:04;10.43;;;5.80;;
37205;SDS011;23099;42.636;23.198;2023-03-29T02:55:34;7.50;;;4.07;;
37205;SDS011;23099;42.636;23.198;2023-03-29T02:58:01;9.13;;;3.67;;
37205;SDS011;23099;42.636;23.198;2023-03-29T03:00:32;5.07;;;2.50;;
37205;SDS011;23099;42.636;23.198;2023-03-29T03:02:59;5.88;;;2.22;;
37205;SDS011;23099;42.636;23.198;2023-03-29T03:05:28;4.87;;;2.07;;
37205;SDS011;23099;42.636;23.198;2023-03-29T03:07:55;5.57;;;2.03;;
37205;SDS011;23099;42.636;23.198;2023-03-29T03:10:22;5.57;;;2.40;;
37205;SDS011;23099;42.636;23.198;2023-03-29T03:12:49;7.37;;;2.33;;
37205;SDS011;23099;42.636;23.198;2023-03-29T03:15:15;7.47;;;3.30;;
37205;SDS011;23099;42.636;23.198;2023-03-29T03:17:42;8.73;;;5.13;;
37205;SDS011;23099;42.636;23.198;2023-03-29T03:20:10;7.22;;;2.75;;
37205;SDS011;23099;42.636;23.198;2023-03-29T03:22:40;5.30;;;2.30;;
37205;SDS011;23099;42.636;23.198;2023-03-29T03:25:08;7.10;;;2.40;;
37205;SDS011;23099;42.636;23.198;2023-03-29T03:27:36;12.65;;;3.53;;
37205;SDS011;23099;42.636;23.198;2023-03-29T03:30:04;8.35;;;3.05;;
37205;SDS011;23099;42.636;23.198;2023-03-29T03:32:31;12.27;;;4.20;;
37205;SDS011;23099;42.636;23.198;2023-03-29T03:37:26;4.87;;;2.10;;
37205;SDS011;23099;42.636;23.198;2023-03-29T03:39:54;9.37;;;2.63;;
37205;SDS011;23099;42.636;23.198;2023-03-29T03:42:21;18.73;;;5.00;;
37205;SDS011;23099;42.636;23.198;2023-03-29T03:44:48;6.43;;;2.60;;
37205;SDS011;23099;42.636;23.198;2023-03-29T03:47:15;5.80;;;1.90;;
37205;SDS011;23099;42.636;23.198;2023-03-29T03:49:41;4.67;;;1.53;;
37205;SDS011;23099;42.636;23.198;2023-03-29T03:52:08;3.13;;;1.13;;
37205;SDS011;23099;42.636;23.198;2023-03-29T03:54:35;7.23;;;3.90;;
37205;SDS011;23099;42.636;23.198;2023-03-29T03:57:03;4.83;;;1.87;;
37205;SDS011;23099;42.636;23.198;2023-03-29T03:59:30;5.00;;;1.65;;
37205;SDS011;23099;42.636;23.198;2023-03-29T04:01:57;4.20;;;1.30;;
37205;SDS011;23099;42.636;23.198;2023-03-29T04:04:24;6.87;;;1.63;;
37205;SDS011;23099;42.636;23.198;2023-03-29T04:06:51;8.07;;;1.47;;
37205;SDS011;23099;42.636;23.198;2023-03-29T04:09:18;5.73;;;1.30;;
37205;SDS011;23099;42.636;23.198;2023-03-29T04:11:46;7.20;;;1.40;;
37205;SDS011;23099;42.636;23.198;2023-03-29T04:14:15;3.07;;;1.30;;
37205;SDS011;23099;42.636;23.198;2023-03-29T04:16:41;6.72;;;2.38;;
37205;SDS011;23099;42.636;23.198;2023-03-29T04:19:08;4.47;;;1.43;;
37205;SDS011;23099;42.636;23.198;2023-03-29T04:21:35;8.47;;;2.07;;
37205;SDS011;23099;42.636;23.198;2023-03-29T04:24:01;3.73;;;1.37;;
37205;SDS011;23099;42.636;23.198;2023-03-29T04:26:28;7.47;;;3.03;;
37205;SDS011;23099;42.636;23.198;2023-03-29T04:28:55;4.80;;;2.10;;
37205;SDS011;23099;42.636;23.198;2023-03-29T04:31:23;6.67;;;2.00;;
37205;SDS011;23099;42.636;23.198;2023-03-29T04:33:50;5.80;;;2.03;;
37205;SDS011;23099;42.636;23.198;2023-03-29T04:36:16;6.33;;;2.20;;
37205;SDS011;23099;42.636;23.198;2023-03-29T04:38:43;5.27;;;2.00;;
37205;SDS011;23099;42.636;23.198;2023-03-29T04:41:11;5.07;;;1.40;;
37205;SDS011;23099;42.636;23.198;2023-03-29T04:43:39;4.70;;;1.33;;
37205;SDS011;23099;42.636;23.198;2023-03-29T04:46:10;4.37;;;1.63;;
37205;SDS011;23099;42.636;23.198;2023-03-29T04:48:38;5.67;;;1.70;;
37205;SDS011;23099;42.636;23.198;2023-03-29T04:51:06;7.13;;;2.20;;
37205;SDS011;23099;42.636;23.198;2023-03-29T04:53:33;7.33;;;1.77;;
37205;SDS011;23099;42.636;23.198;2023-03-29T04:55:59;6.10;;;1.57;;
37205;SDS011;23099;42.636;23.198;2023-03-29T04:58:27;3.57;;;1.30;;
37205;SDS011;23099;42.636;23.198;2023-03-29T05:00:54;4.00;;;1.60;;
37205;SDS011;23099;42.636;23.198;2023-03-29T05:03:21;5.53;;;2.03;;
37205;SDS011;23099;42.636;23.198;2023-03-29T05:05:49;6.40;;;1.60;;
37205;SDS011;23099;42.636;23.198;2023-03-29T05:08:16;5.05;;;1.30;;
37205;SDS011;23099;42.636;23.198;2023-03-29T05:10:43;4.77;;;1.40;;
37205;SDS011;23099;42.636;23.198;2023-03-29T05:13:11;5.97;;;1.52;;
37205;SDS011;23099;42.636;23.198;2023-03-29T05:15:38;5.17;;;1.30;;
37205;SDS011;23099;42.636;23.198;2023-03-29T05:18:05;5.73;;;1.27;;
37205;SDS011;23099;42.636;23.198;2023-03-29T05:20:32;5.03;;;1.37;;
37205;SDS011;23099;42.636;23.198;2023-03-29T05:23:00;4.60;;;1.50;;
37205;SDS011;23099;42.636;23.198;2023-03-29T05:25:26;5.03;;;1.33;;
37205;SDS011;23099;42.636;23.198;2023-03-29T05:27:53;5.73;;;1.77;;
37205;SDS011;23099;42.636;23.198;2023-03-29T05:30:20;5.00;;;1.53;;
37205;SDS011;23099;42.636;23.198;2023-03-29T05:32:47;7.07;;;1.87;;
37205;SDS011;23099;42.636;23.198;2023-03-29T05:35:13;4.10;;;1.20;;
37205;SDS011;23099;42.636;23.198;2023-03-29T05:37:40;6.70;;;3.27;;
37205;SDS011;23099;42.636;23.198;2023-03-29T05:40:08;4.67;;;2.03;;
37205;SDS011;23099;42.636;23.198;2023-03-29T05:42:37;5.43;;;1.30;;
37205;SDS011;23099;42.636;23.198;2023-03-29T05:45:04;6.60;;;2.90;;
37205;SDS011;23099;42.636;23.198;2023-03-29T05:47:31;5.38;;;1.65;;
37205;SDS011;23099;42.636;23.198;2023-03-29T05:49:58;8.37;;;2.87;;
37205;SDS011;23099;42.636;23.198;2023-03-29T05:52:25;7.90;;;2.60;;
37205;SDS011;23099;42.636;23.198;2023-03-29T05:54:51;10.80;;;2.60;;
37205;SDS011;23099;42.636;23.198;2023-03-29T05:57:19;6.77;;;2.33;;
37205;SDS011;23099;42.636;23.198;2023-03-29T05:59:46;7.55;;;2.08;;
37205;SDS011;23099;42.636;23.198;2023-03-29T06:02:13;5.73;;;1.60;;
37205;SDS011;23099;42.636;23.198;2023-03-29T06:04:40;5.23;;;1.40;;
37205;SDS011;23099;42.636;23.198;2023-03-29T06:07:07;4.63;;;1.70;;
37205;SDS011;23099;42.636;23.198;2023-03-29T06:09:34;9.52;;;2.22;;
37205;SDS011;23099;42.636;23.198;2023-03-29T06:12:03;7.93;;;2.20;;
37205;SDS011;23099;42.636;23.198;2023-03-29T06:14:32;5.33;;;1.40;;
37205;SDS011;23099;42.636;23.198;2023-03-29T06:16:59;5.80;;;1.80;;
37205;SDS011;23099;42.636;23.198;2023-03-29T06:19:26;7.67;;;1.40;;
37205;SDS011;23099;42.636;23.198;2023-03-29T06:21:53;5.27;;;1.67;;
37205;SDS011;23099;42.636;23.198;2023-03-29T06:24:20;6.37;;;2.43;;
37205;SDS011;23099;42.636;23.198;2023-03-29T06:26:46;6.30;;;1.37;;
37205;SDS011;23099;42.636;23.198;2023-03-29T06:29:14;7.15;;;1.55;;
37205;SDS011;23099;42.636;23.198;2023-03-29T06:31:42;3.70;;;1.10;;
37205;SDS011;23099;42.636;23.198;2023-03-29T06:34:09;7.85;;;1.77;;
37205;SDS011;23099;42.636;23.198;2023-03-29T06:36:37;7.50;;;1.23;;
37205;SDS011;23099;42.636;23.198;2023-03-29T06:39:04;5.73;;;1.40;;
37205;SDS011;23099;42.636;23.198;2023-03-29T06:41:32;3.22;;;1.02;;
37205;SDS011;23099;42.636;23.198;2023-03-29T06:43:59;8.53;;;2.50;;
37205;SDS011;23099;42.636;23.198;2023-03-29T06:46:26;6.97;;;2.27;;
37205;SDS011;23099;42.636;23.198;2023-03-29T06:48:54;4.90;;;1.50;;
37205;SDS011;23099;42.636;23.198;2023-03-29T06:53:47;4.70;;;1.40;;
37205;SDS011;23099;42.636;23.198;2023-03-29T06:56:14;3.97;;;1.20;;
37205;SDS011;23099;42.636;23.198;2023-03-29T06:58:41;7.13;;;1.70;;
37205;SDS011;23099;42.636;23.198;2023-03-29T07:01:09;6.37;;;1.90;;
37205;SDS011;23099;42.636;23.198;2023-03-29T07:03:35;4.67;;;1.00;;
37205;SDS011;23099;42.636;23.198;2023-03-29T07:06:05;4.40;;;1.25;;
37205;SDS011;23099;42.636;23.198;2023-03-29T07:08:35;5.67;;;1.17;;
37205;SDS011;23099;42.636;23.198;2023-03-29T07:11:07;6.87;;;1.63;;
37205;SDS011;23099;42.636;23.198;2023-03-29T07:13:34;13.83;;;2.63;;
37205;SDS011;23099;42.636;23.198;2023-03-29T07:16:01;2.73;;;0.80;;
37205;SDS011;23099;42.636;23.198;2023-03-29T07:18:28;3.40;;;1.00;;
37205;SDS011;23099;42.636;23.198;2023-03-29T07:20:54;7.67;;;1.80;;
37205;SDS011;23099;42.636;23.198;2023-03-29T07:23:22;6.67;;;1.47;;
37205;SDS011;23099;42.636;23.198;2023-03-29T07:25:52;13.57;;;2.88;;
37205;SDS011;23099;42.636;23.198;2023-03-29T07:28:18;5.83;;;1.37;;
37205;SDS011;23099;42.636;23.198;2023-03-29T07:30:45;4.93;;;1.10;;
37205;SDS011;23099;42.636;23.198;2023-03-29T07:33:12;7.30;;;1.67;;
37205;SDS011;23099;42.636;23.198;2023-03-29T07:35:38;5.83;;;0.97;;
37205;SDS011;23099;42.636;23.198;2023-03-29T07:38:07;5.43;;;0.70;;
37205;SDS011;23099;42.636;23.198;2023-03-29T07:40:35;3.40;;;1.13;;
37205;SDS011;23099;42.636;23.198;2023-03-29T07:43:02;6.03;;;1.40;;
37205;SDS011;23099;42.636;23.198;2023-03-29T07:45:33;4.63;;;0.90;;
37205;SDS011;23099;42.636;23.198;2023-03-29T07:47:59;3.97;;;1.00;;
37205;SDS011;23099;42.636;23.198;2023-03-29T07:50:26;6.30;;;1.77;;
37205;SDS011;23099;42.636;23.198;2023-03-29T07:52:56;4.63;;;0.93;;
37205;SDS011;23099;42.636;23.198;2023-03-29T07:57:52;5.30;;;1.00;;
37205;SDS011;23099;42.636;23.198;2023-03-29T08:00:20;4.80;;;1.35;;
37205;SDS011;23099;42.636;23.198;2023-03-29T08:02:49;3.03;;;0.87;;
37205;SDS011;23099;42.636;23.198;2023-03-29T08:05:17;6.63;;;1.07;;
37205;SDS011;23099;42.636;23.198;2023-03-29T08:07:46;2.57;;;0.60;;
37205;SDS011;23099;42.636;23.198;2023-03-29T08:10:14;5.00;;;1.30;;
37205;SDS011;23099;42.636;23.198;2023-03-29T08:12:42;5.27;;;1.37;;
37205;SDS011;23099;42.636;23.198;2023-03-29T08:15:11;3.53;;;0.80;;
37205;SDS011;23099;42.636;23.198;2023-03-29T08:17:38;2.63;;;0.60;;
37205;SDS011;23099;42.636;23.198;2023-03-29T08:20:07;3.65;;;0.63;;
37205;SDS011;23099;42.636;23.198;2023-03-29T08:22:36;4.00;;;0.90;;
37205;SDS011;23099;42.636;23.198;2023-03-29T08:25:03;8.33;;;1.67;;
37205;SDS011;23099;42.636;23.198;2023-03-29T08:27:31;9.02;;;1.50;;
37205;SDS011;23099;42.636;23.198;2023-03-29T08:29:58;2.67;;;0.80;;
37205;SDS011;23099;42.636;23.198;2023-03-29T08:32:26;3.93;;;0.70;;
37205;SDS011;23099;42.636;23.198;2023-03-29T08:34:52;5.10;;;1.70;;
37205;SDS011;23099;42.636;23.198;2023-03-29T08:37:19;8.17;;;1.70;;
37205;SDS011;23099;42.636;23.198;2023-03-29T08:39:48;7.73;;;0.90;;
37205;SDS011;23099;42.636;23.198;2023-03-29T08:45:10;3.43;;;0.70;;
37205;SDS011;23099;42.636;23.198;2023-03-29T08:47:46;3.37;;;0.70;;
37205;SDS011;23099;42.636;23.198;2023-03-29T08:50:30;2.77;;;0.80;;
37205;SDS011;23099;42.636;23.198;2023-03-29T08:53:01;4.40;;;0.73;;
37205;SDS011;23099;42.636;23.198;2023-03-29T08:55:34;4.03;;;0.93;;
37205;SDS011;23099;42.636;23.198;2023-03-29T08:58:05;2.97;;;0.60;;
37205;SDS011;23099;42.636;23.198;2023-03-29T09:00:36;7.82;;;1.50;;
37205;SDS011;23099;42.636;23.198;2023-03-29T09:03:09;9.27;;;2.00;;
37205;SDS011;23099;42.636;23.198;2023-03-29T09:05:45;4.82;;;0.60;;
37205;SDS011;23099;42.636;23.198;2023-03-29T09:08:14;5.60;;;1.30;;
37205;SDS011;23099;42.636;23.198;2023-03-29T09:10:43;2.15;;;0.55;;
37205;SDS011;23099;42.636;23.198;2023-03-29T09:13:25;1.45;;;0.43;;
37205;SDS011;23099;42.636;23.198;2023-03-29T09:15:59;2.97;;;0.60;;
37205;SDS011;23099;42.636;23.198;2023-03-29T09:18:34;2.28;;;0.50;;
37205;SDS011;23099;42.636;23.198;2023-03-29T09:21:15;2.53;;;0.60;;
37205;SDS011;23099;42.636;23.198;2023-03-29T09:23:51;10.52;;;1.90;;
37205;SDS011;23099;42.636;23.198;2023-03-29T09:26:30;2.03;;;0.50;;
37205;SDS011;23099;42.636;23.198;2023-03-29T09:29:05;3.35;;;0.50;;
37205;SDS011;23099;42.636;23.198;2023-03-29T09:31:42;3.25;;;0.60;;
37205;SDS011;23099;42.636;23.198;2023-03-29T09:34:12;2.28;;;0.60;;
37205;SDS011;23099;42.636;23.198;2023-03-29T09:36:41;3.03;;;0.50;;
37205;SDS011;23099;42.636;23.198;2023-03-29T09:39:16;6.00;;;0.70;;
37205;SDS011;23099;42.636;23.198;2023-03-29T09:41:46;2.65;;;0.52;;
37205;SDS011;23099;42.636;23.198;2023-03-29T09:44:17;2.10;;;0.50;;
37205;SDS011;23099;42.636;23.198;2023-03-29T09:46:49;3.20;;;0.55;;
37205;SDS011;23099;42.636;23.198;2023-03-29T09:49:22;2.08;;;0.45;;
37205;SDS011;23099;42.636;23.198;2023-03-29T09:51:52;2.72;;;0.60;;
37205;SDS011;23099;42.636;23.198;2023-03-29T09:54:22;2.67;;;0.40;;
37205;SDS011;23099;42.636;23.198;2023-03-29T09:56:49;3.22;;;0.52;;
37205;SDS011;23099;42.636;23.198;2023-03-29T09:59:16;4.18;;;0.50;;
37205;SDS011;23099;42.636;23.198;2023-03-29T10:01:43;1.67;;;0.40;;
37205;SDS011;23099;42.636;23.198;2023-03-29T10:04:10;2.47;;;0.50;;
37205;SDS011;23099;42.636;23.198;2023-03-29T10:06:43;1.60;;;0.40;;
37205;SDS011;23099;42.636;23.198;2023-03-29T10:09:14;2.58;;;0.60;;
37205;SDS011;23099;42.636;23.198;2023-03-29T10:11:44;4.35;;;1.00;;
37205;SDS011;23099;42.636;23.198;2023-03-29T10:14:15;2.15;;;0.50;;
37205;SDS011;23099;42.636;23.198;2023-03-29T10:16:44;1.90;;;0.30;;
37205;SDS011;23099;42.636;23.198;2023-03-29T10:19:18;1.10;;;0.38;;
37205;SDS011;23099;42.636;23.198;2023-03-29T10:21:48;1.40;;;0.32;;
37205;SDS011;23099;42.636;23.198;2023-03-29T10:24:19;3.22;;;0.70;;
37205;SDS011;23099;42.636;23.198;2023-03-29T10:26:46;6.15;;;0.93;;
37205;SDS011;23099;42.636;23.198;2023-03-29T10:29:19;3.35;;;0.60;;
37205;SDS011;23099;42.636;23.198;2023-03-29T10:31:47;3.78;;;0.50;;
37205;SDS011;23099;42.636;23.198;2023-03-29T10:34:14;2.10;;;0.40;;
37205;SDS011;23099;42.636;23.198;2023-03-29T10:36:43;1.08;;;0.40;;
37205;SDS011;23099;42.636;23.198;2023-03-29T10:39:13;1.40;;;0.30;;
37205;SDS011;23099;42.636;23.198;2023-03-29T10:41:41;1.80;;;0.35;;
37205;SDS011;23099;42.636;23.198;2023-03-29T10:46:50;3.40;;;0.50;;
37205;SDS011;23099;42.636;23.198;2023-03-29T10:49:18;2.35;;;0.43;;
37205;SDS011;23099;42.636;23.198;2023-03-29T10:51:47;2.63;;;0.32;;
37205;SDS011;23099;42.636;23.198;2023-03-29T10:54:18;1.85;;;0.40;;
37205;SDS011;23099;42.636;23.198;2023-03-29T10:56:48;1.73;;;0.40;;
37205;SDS011;23099;42.636;23.198;2023-03-29T10:59:23;1.92;;;0.40;;
37205;SDS011;23099;42.636;23.198;2023-03-29T11:01:56;2.72;;;0.40;;
37205;SDS011;23099;42.636;23.198;2023-03-29T11:04:38;5.65;;;0.70;;
37205;SDS011;23099;42.636;23.198;2023-03-29T11:07:17;3.15;;;0.40;;
37205;SDS011;23099;42.636;23.198;2023-03-29T11:09:54;3.28;;;0.52;;
37205;SDS011;23099;42.636;23.198;2023-03-29T11:12:29;2.17;;;0.50;;
37205;SDS011;23099;42.636;23.198;2023-03-29T11:15:15;1.65;;;0.50;;
37205;SDS011;23099;42.636;23.198;2023-03-29T11:17:57;1.98;;;0.38;;
37205;SDS011;23099;42.636;23.198;2023-03-29T11:20:36;3.33;;;0.40;;
37205;SDS011;23099;42.636;23.198;2023-03-29T11:23:12;3.25;;;0.40;;
37205;SDS011;23099;42.636;23.198;2023-03-29T11:25:55;1.85;;;0.50;;
37205;SDS011;23099;42.636;23.198;2023-03-29T11:28:35;2.72;;;0.43;;
37205;SDS011;23099;42.636;23.198;2023-03-29T11:31:08;2.97;;;0.40;;
37205;SDS011;23099;42.636;23.198;2023-03-29T11:33:46;2.95;;;0.60;;
37205;SDS011;23099;42.636;23.198;2023-03-29T11:36:23;11.30;;;1.20;;
37205;SDS011;23099;42.636;23.198;2023-03-29T11:38:59;3.78;;;0.60;;
37205;SDS011;23099;42.636;23.198;2023-03-29T11:41:31;2.65;;;0.40;;
37205;SDS011;23099;42.636;23.198;2023-03-29T11:44:04;1.83;;;0.32;;
37205;SDS011;23099;42.636;23.198;2023-03-29T11:46:36;1.95;;;0.50;;
37205;SDS011;23099;42.636;23.198;2023-03-29T11:49:08;12.48;;;2.22;;
37205;SDS011;23099;42.636;23.198;2023-03-29T11:51:41;4.63;;;0.60;;
37205;SDS011;23099;42.636;23.198;2023-03-29T11:54:12;4.03;;;0.60;;
37205;SDS011;23099;42.636;23.198;2023-03-29T11:56:45;2.30;;;0.60;;
37205;SDS011;23099;42.636;23.198;2023-03-29T11:59:14;1.80;;;0.50;;
37205;SDS011;23099;42.636;23.198;2023-03-29T12:01:47;1.63;;;0.45;;
37205;SDS011;23099;42.636;23.198;2023-03-29T12:04:20;2.85;;;0.40;;
37205;SDS011;23099;42.636;23.198;2023-03-29T12:06:53;4.43;;;0.47;;
37205;SDS011;23099;42.636;23.198;2023-03-29T12:09:31;3.08;;;0.57;;
37205;SDS011;23099;42.636;23.198;2023-03-29T12:12:04;3.20;;;0.40;;
37205;SDS011;23099;42.636;23.198;2023-03-29T12:14:40;2.63;;;0.40;;
37205;SDS011;23099;42.636;23.198;2023-03-29T12:17:13;6.70;;;1.98;;
37205;SDS011;23099;42.636;23.198;2023-03-29T12:19:44;1.90;;;0.60;;
37205;SDS011;23099;42.636;23.198;2023-03-29T12:22:16;2.63;;;0.50;;
37205;SDS011;23099;42.636;23.198;2023-03-29T12:24:43;2.20;;;0.65;;
37205;SDS011;23099;42.636;23.198;2023-03-29T12:27:17;3.25;;;0.60;;
37205;SDS011;23099;42.636;23.198;2023-03-29T12:35:53;2.25;;;0.50;;
37205;SDS011;23099;42.636;23.198;2023-03-29T12:38:32;3.25;;;0.80;;
37205;SDS011;23099;42.636;23.198;2023-03-29T12:41:01;2.22;;;0.57;;
37205;SDS011;23099;42.636;23.198;2023-03-29T12:43:37;3.15;;;2.10;;
37205;SDS011;23099;42.636;23.198;2023-03-29T12:46:07;1.33;;;0.40;;
37205;SDS011;23099;42.636;23.198;2023-03-29T12:48:39;2.20;;;0.45;;
37205;SDS011;23099;42.636;23.198;2023-03-29T12:51:10;5.05;;;0.90;;
37205;SDS011;23099;42.636;23.198;2023-03-29T12:53:40;3.10;;;0.50;;
37205;SDS011;23099;42.636;23.198;2023-03-29T12:56:10;3.97;;;0.73;;
37205;SDS011;23099;42.636;23.198;2023-03-29T12:58:41;2.20;;;0.50;;
37205;SDS011;23099;42.636;23.198;2023-03-29T13:01:21;2.95;;;0.38;;
37205;SDS011;23099;42.636;23.198;2023-03-29T13:03:53;2.28;;;0.50;;
37205;SDS011;23099;42.636;23.198;2023-03-29T13:06:26;2.88;;;0.40;;
37205;SDS011;23099;42.636;23.198;2023-03-29T13:08:59;2.33;;;0.40;;
37205;SDS011;23099;42.636;23.198;2023-03-29T13:11:30;1.83;;;0.40;;
37205;SDS011;23099;42.636;23.198;2023-03-29T13:14:02;3.90;;;0.80;;
37205;SDS011;23099;42.636;23.198;2023-03-29T13:16:38;2.08;;;0.50;;
37205;SDS011;23099;42.636;23.198;2023-03-29T13:19:09;2.85;;;0.45;;
37205;SDS011;23099;42.636;23.198;2023-03-29T13:21:51;2.40;;;0.60;;
37205;SDS011;23099;42.636;23.198;2023-03-29T13:24:34;1.60;;;0.40;;
37205;SDS011;23099;42.636;23.198;2023-03-29T13:27:14;4.32;;;0.52;;
37205;SDS011;23099;42.636;23.198;2023-03-29T13:29:54;1.85;;;0.40;;
37205;SDS011;23099;42.636;23.198;2023-03-29T13:32:39;1.80;;;0.40;;
37205;SDS011;23099;42.636;23.198;2023-03-29T13:35:15;1.70;;;0.38;;
37205;SDS011;23099;42.636;23.198;2023-03-29T13:37:56;2.38;;;0.40;;
37205;SDS011;23099;42.636;23.198;2023-03-29T13:40:40;2.65;;;0.40;;
37205;SDS011;23099;42.636;23.198;2023-03-29T13:43:18;1.50;;;0.40;;
37205;SDS011;23099;42.636;23.198;2023-03-29T13:46:03;3.28;;;0.50;;
37205;SDS011;23099;42.636;23.198;2023-03-29T13:48:32;2.15;;;0.60;;
37205;SDS011;23099;42.636;23.198;2023-03-29T13:51:20;2.47;;;0.60;;
37205;SDS011;23099;42.636;23.198;2023-03-29T13:53:53;3.45;;;0.68;;
37205;SDS011;23099;42.636;23.198;2023-03-29T13:56:23;1.88;;;0.45;;
37205;SDS011;23099;42.636;23.198;2023-03-29T13:58:54;2.20;;;0.50;;
37205;SDS011;23099;42.636;23.198;2023-03-29T14:01:34;2.95;;;0.50;;
37205;SDS011;23099;42.636;23.198;2023-03-29T14:04:05;2.15;;;0.50;;
37205;SDS011;23099;42.636;23.198;2023-03-29T14:06:37;2.05;;;0.60;;
37205;SDS011;23099;42.636;23.198;2023-03-29T14:09:07;3.00;;;0.57;;
37205;SDS011;23099;42.636;23.198;2023-03-29T14:11:41;3.38;;;0.60;;
37205;SDS011;23099;42.636;23.198;2023-03-29T14:14:10;3.25;;;0.50;;
37205;SDS011;23099;42.636;23.198;2023-03-29T14:16:39;2.40;;;0.50;;
37205;SDS011;23099;42.636;23.198;2023-03-29T14:19:10;3.67;;;0.85;;
37205;SDS011;23099;42.636;23.198;2023-03-29T14:21:40;1.75;;;0.40;;
37205;SDS011;23099;42.636;23.198;2023-03-29T14:24:09;2.70;;;0.63;;
37205;SDS011;23099;42.636;23.198;2023-03-29T14:26:37;2.30;;;0.50;;
37205;SDS011;23099;42.636;23.198;2023-03-29T14:29:09;4.30;;;0.60;;
37205;SDS011;23099;42.636;23.198;2023-03-29T14:31:37;2.75;;;0.60;;
37205;SDS011;23099;42.636;23.198;2023-03-29T14:34:09;2.05;;;0.50;;
37205;SDS011;23099;42.636;23.198;2023-03-29T14:36:38;2.50;;;0.50;;
37205;SDS011;23099;42.636;23.198;2023-03-29T14:39:07;2.70;;;0.43;;
37205;SDS011;23099;42.636;23.198;2023-03-29T14:41:38;2.15;;;0.50;;
37205;SDS011;23099;42.636;23.198;2023-03-29T14:44:08;2.40;;;0.50;;
37205;SDS011;23099;42.636;23.198;2023-03-29T14:46:36;8.10;;;1.42;;
37205;SDS011;23099;42.636;23.198;2023-03-29T14:49:04;2.75;;;0.50;;
37205;SDS011;23099;42.636;23.198;2023-03-29T14:51:31;1.50;;;0.40;;
37205;SDS011;23099;42.636;23.198;2023-03-29T14:53:59;2.67;;;0.60;;
37205;SDS011;23099;42.636;23.198;2023-03-29T14:56:28;6.43;;;1.00;;
37205;SDS011;23099;42.636;23.198;2023-03-29T14:58:56;2.88;;;0.60;;
37205;SDS011;23099;42.636;23.198;2023-03-29T15:01:26;2.13;;;0.40;;
37205;SDS011;23099;42.636;23.198;2023-03-29T15:03:54;2.17;;;0.43;;
37205;SDS011;23099;42.636;23.198;2023-03-29T15:06:23;4.13;;;0.60;;
37205;SDS011;23099;42.636;23.198;2023-03-29T15:08:51;4.13;;;0.50;;
37205;SDS011;23099;42.636;23.198;2023-03-29T15:11:20;4.45;;;0.50;;
37205;SDS011;23099;42.636;23.198;2023-03-29T15:13:49;2.50;;;0.50;;
37205;SDS011;23099;42.636;23.198;2023-03-29T15:16:20;2.13;;;0.50;;
37205;SDS011;23099;42.636;23.198;2023-03-29T15:18:47;2.80;;;0.40;;
37205;SDS011;23099;42.636;23.198;2023-03-29T15:21:18;3.40;;;0.50;;